page 7661 of 1004498 registered users

eBook PostsUsers

  1. 0canadagauge24 registered @ 2013-05-31 22:03:31, last login @ 2013-05-31 22:03:31
  2. 0freon90aunt registered @ 2013-05-31 22:03:32, last login @ 2013-05-31 22:03:32
  3. 0jasonbeast3 registered @ 2013-05-31 22:03:39, last login @ 2013-05-31 22:36:38
  4. 0galley3east registered @ 2013-05-31 22:04:28, last login @ 2013-05-31 22:50:22
  5. 0bear8piano registered @ 2013-05-31 22:04:39, last login @ 2013-05-31 22:04:39
  6. 0plant82letter registered @ 2013-05-31 22:05:10, last login @ 2013-05-31 22:05:10
  7. 0keycircle01 registered @ 2013-05-31 22:05:35, last login @ 2013-05-31 22:05:35
  8. 0horsecrow3 registered @ 2013-05-31 22:06:28, last login @ 2013-05-31 22:32:29
  9. 0yvonnehughes registered @ 2013-05-31 22:06:41, last login @ 2013-05-31 22:06:41
  10. 0Vgvxgrqy registered @ 2013-05-31 22:07:27, last login @ 2013-05-31 22:07:27
  11. 0alley56card registered @ 2013-05-31 22:08:15, last login @ 2013-05-31 22:08:15
  12. 0wespa86 registered @ 2013-05-31 22:09:00, last login @ 2013-05-31 22:09:00
  13. 0patchpuffin89 registered @ 2013-05-31 22:09:11, last login @ 2013-05-31 22:09:11
  14. 0sharonhen21 registered @ 2013-05-31 22:10:08, last login @ 2013-05-31 22:10:08
  15. 0laura54smile registered @ 2013-05-31 22:10:28, last login @ 2013-05-31 22:10:28
  16. 0mosque72wolf registered @ 2013-05-31 22:10:31, last login @ 2013-05-31 22:10:31
  17. 0closepolo4 registered @ 2013-05-31 22:12:42, last login @ 2013-05-31 22:12:42
  18. 0reportfarmer49 registered @ 2013-05-31 22:12:45, last login @ 2013-05-31 22:12:45
  19. 0front24cup registered @ 2013-05-31 22:13:15, last login @ 2013-05-31 22:13:15
  20. 0cubyellow0 registered @ 2013-05-31 22:13:29, last login @ 2013-05-31 22:13:29
  21. 0year2tail registered @ 2013-05-31 22:13:31, last login @ 2013-05-31 22:13:31
  22. 0syriaafrica1 registered @ 2013-05-31 22:14:00, last login @ 2013-05-31 22:14:00
  23. 0moonlyre6 registered @ 2013-05-31 22:14:56, last login @ 2013-05-31 22:14:56
  24. 0pointbumper7 registered @ 2013-05-31 22:17:16, last login @ 2013-05-31 22:17:16
  25. 0degreecamel3 registered @ 2013-05-31 22:17:21, last login @ 2013-05-31 22:17:21
  26. 0router9beer registered @ 2013-05-31 22:17:30, last login @ 2013-05-31 22:17:30
  27. 0polandwitch85 registered @ 2013-05-31 22:17:46, last login @ 2013-05-31 22:17:46
  28. 0cementedge0 registered @ 2013-05-31 22:17:56, last login @ 2013-05-31 22:17:56
  29. 0suede9rule registered @ 2013-05-31 22:18:05, last login @ 2013-05-31 22:18:05
  30. 0solarypompyw registered @ 2013-05-31 22:18:33, last login @ 2013-05-31 22:18:33
  31. 0dash9silica registered @ 2013-05-31 22:19:59, last login @ 2013-05-31 22:46:53
  32. 0horse35bagel registered @ 2013-05-31 22:19:59, last login @ 2013-05-31 22:19:59
  33. 0pingocelot92 registered @ 2013-05-31 22:20:04, last login @ 2013-05-31 22:20:04
  34. 0anger3knight registered @ 2013-05-31 22:21:35, last login @ 2013-05-31 22:49:27
  35. 0streamfox18 registered @ 2013-05-31 22:21:40, last login @ 2013-05-31 22:21:40
  36. 0LTSppgs52 registered @ 2013-05-31 22:24:20, last login @ 2013-05-31 22:24:20
  37. 0insect12tail registered @ 2013-05-31 22:24:54, last login @ 2013-05-31 22:24:54
  38. 0spear5garlic registered @ 2013-05-31 22:25:11, last login @ 2013-05-31 22:25:11
  39. 0temper7pants registered @ 2013-05-31 22:26:00, last login @ 2013-05-31 22:26:00
  40. 0peakbox97 registered @ 2013-05-31 22:29:13, last login @ 2013-05-31 22:29:13
  41. 0turtlepansy5 registered @ 2013-05-31 22:31:17, last login @ 2013-05-31 22:31:17
  42. 0quitcrop6 registered @ 2013-05-31 22:31:58, last login @ 2013-05-31 22:31:58
  43. 0plainstage2 registered @ 2013-05-31 22:32:10, last login @ 2013-05-31 22:32:10
  44. 0secondmaria37 registered @ 2013-05-31 22:32:16, last login @ 2013-05-31 22:32:16
  45. 0bongostem7 registered @ 2013-05-31 22:32:41, last login @ 2013-05-31 22:32:41
  46. 0zebra97net registered @ 2013-05-31 22:35:02, last login @ 2013-05-31 22:35:02
  47. 0rhythm2raft registered @ 2013-05-31 22:36:46, last login @ 2013-05-31 22:36:46
  48. 0expertclam9 registered @ 2013-05-31 22:36:48, last login @ 2013-05-31 22:36:48
  49. 0lynxfront79 registered @ 2013-05-31 22:37:55, last login @ 2013-05-31 22:37:55
  50. 0dropspade6 registered @ 2013-05-31 22:37:58, last login @ 2013-05-31 22:37:58
  51. 0plainbank58 registered @ 2013-05-31 22:38:42, last login @ 2013-05-31 22:38:42
  52. 0miledew89 registered @ 2013-05-31 22:38:49, last login @ 2013-05-31 22:38:49
  53. 0letterapril29 registered @ 2013-05-31 22:39:34, last login @ 2013-05-31 22:39:34
  54. 0basintower9 registered @ 2013-05-31 22:40:02, last login @ 2013-05-31 22:40:02
  55. 0clickturn20 registered @ 2013-05-31 22:40:12, last login @ 2013-05-31 22:40:12
  56. 0cloudsheet8 registered @ 2013-05-31 22:40:12, last login @ 2013-05-31 22:40:12
  57. 0nightcandle99 registered @ 2013-05-31 22:40:40, last login @ 2013-05-31 22:40:40
  58. 0sidezebra76 registered @ 2013-05-31 22:41:42, last login @ 2013-05-31 22:41:42
  59. 0slip2clave registered @ 2013-05-31 22:41:57, last login @ 2013-05-31 22:41:57
  60. 0yam33flood registered @ 2013-05-31 22:42:18, last login @ 2013-05-31 22:42:18
  61. 0queen4cord registered @ 2013-05-31 22:44:48, last login @ 2013-05-31 22:44:48
  62. 0ground23jacket registered @ 2013-05-31 22:46:19, last login @ 2013-05-31 22:46:19
  63. 0lyricadult35 registered @ 2013-05-31 22:46:45, last login @ 2013-05-31 22:46:45
  64. 0adaptable67 registered @ 2013-05-31 22:47:16, last login @ 2013-05-31 22:47:16
  65. 0shield26router registered @ 2013-05-31 22:47:24, last login @ 2013-05-31 22:47:24
  66. 0male8ball registered @ 2013-05-31 22:49:44, last login @ 2013-05-31 22:49:44
  67. 0eeltoe46 registered @ 2013-05-31 22:50:36, last login @ 2013-05-31 22:50:36
  68. 0auntstreet25 registered @ 2013-05-31 22:50:49, last login @ 2013-05-31 22:50:49
  69. 0driverstudy4 registered @ 2013-05-31 22:51:20, last login @ 2013-05-31 22:51:20
  70. 0Stefan815 registered @ 2013-05-31 22:51:24, last login @ 2013-05-31 22:51:24
  71. 0order39oil registered @ 2013-05-31 22:51:31, last login @ 2013-05-31 22:51:31
  72. 0francesudan54 registered @ 2013-05-31 22:53:25, last login @ 2013-05-31 22:53:25
  73. 0advice4cancer registered @ 2013-05-31 22:54:01, last login @ 2013-05-31 22:54:01
  74. 0sprout83potato registered @ 2013-05-31 22:54:20, last login @ 2013-05-31 22:54:20
  75. 0sheep6input registered @ 2013-05-31 22:55:04, last login @ 2013-05-31 22:55:04
  76. 0listswim78 registered @ 2013-05-31 22:55:16, last login @ 2013-05-31 22:55:16
  77. 0roast3puppy registered @ 2013-05-31 22:56:59, last login @ 2013-05-31 22:56:59
  78. 0frost95close registered @ 2013-05-31 22:57:48, last login @ 2013-05-31 22:57:48
  79. 0pencilcrab02 registered @ 2013-05-31 22:58:02, last login @ 2013-05-31 22:58:02
  80. 0lilyveil90 registered @ 2013-05-31 23:01:40, last login @ 2013-05-31 23:01:40
  81. 0bar83bongo registered @ 2013-05-31 23:02:17, last login @ 2013-05-31 23:02:17
  82. 0Bullock8 registered @ 2013-05-31 23:03:26, last login @ 2013-05-31 23:03:26
  83. 0hook8cornet registered @ 2013-05-31 23:05:47, last login @ 2013-05-31 23:05:47
  84. 0socceKitsS registered @ 2013-05-31 23:06:23, last login @ 2013-05-31 23:06:23
  85. 0cropeditor91 registered @ 2013-05-31 23:08:51, last login @ 2013-05-31 23:08:51
  86. 0peabangle5 registered @ 2013-05-31 23:09:35, last login @ 2013-05-31 23:09:35
  87. 0tempo56badge registered @ 2013-05-31 23:10:21, last login @ 2013-05-31 23:10:21
  88. 0iran6drive registered @ 2013-05-31 23:11:00, last login @ 2013-05-31 23:11:00
  89. 0kalechess07 registered @ 2013-05-31 23:11:24, last login @ 2013-05-31 23:11:24
  90. 0fight2bull registered @ 2013-05-31 23:11:41, last login @ 2013-05-31 23:11:41
  91. 0quart7cereal registered @ 2013-05-31 23:12:15, last login @ 2013-05-31 23:12:15
  92. 0nicmen16 registered @ 2013-05-31 23:12:49, last login @ 2013-05-31 23:12:49
  93. 0tulip24rubber registered @ 2013-05-31 23:13:49, last login @ 2013-05-31 23:13:49
  94. 0childbeard7 registered @ 2013-05-31 23:13:52, last login @ 2013-05-31 23:13:52
  95. 0foamspark44 registered @ 2013-05-31 23:14:12, last login @ 2013-05-31 23:14:12
  96. 0showfamily6 registered @ 2013-05-31 23:14:50, last login @ 2013-05-31 23:14:50
  97. 0chancehot9 registered @ 2013-05-31 23:15:23, last login @ 2013-05-31 23:28:38
  98. 0gallonmay27 registered @ 2013-05-31 23:15:58, last login @ 2013-05-31 23:15:58
  99. 0soupbanjo20 registered @ 2013-05-31 23:17:00, last login @ 2013-05-31 23:17:00
  100. 0notify3coin registered @ 2013-05-31 23:18:00, last login @ 2013-05-31 23:18:00
  101. 0zarembase registered @ 2013-05-31 23:18:57, last login @ 2013-05-31 23:18:57

More...

[7671] [7670] [7669] [7668] [7667] [7666] [7665] [7664] [7663] [7662] [7661] [7660] [7659] [7658] [7657] [7656] [7655] [7654] [7653] [7652] ...[1]
Back to Top